sensor_id;sensor_type;location;lat;lon;timestamp;P1;durP1;ratioP1;P2;durP2;ratioP2
7213;SDS011;3648;50.614;13.830;2022-08-18T00:02:05;4.97;;;4.30;;
7213;SDS011;3648;50.614;13.830;2022-08-18T00:04:35;4.33;;;3.93;;
7213;SDS011;3648;50.614;13.830;2022-08-18T00:07:03;5.80;;;4.00;;
7213;SDS011;3648;50.614;13.830;2022-08-18T00:09:32;4.23;;;3.83;;
7213;SDS011;3648;50.614;13.830;2022-08-18T00:12:01;4.73;;;3.90;;
7213;SDS011;3648;50.614;13.830;2022-08-18T00:14:33;4.77;;;4.37;;
7213;SDS011;3648;50.614;13.830;2022-08-18T00:17:00;5.90;;;4.27;;
7213;SDS011;3648;50.614;13.830;2022-08-18T00:19:27;5.13;;;3.93;;
7213;SDS011;3648;50.614;13.830;2022-08-18T00:21:54;4.33;;;3.90;;
7213;SDS011;3648;50.614;13.830;2022-08-18T00:24:21;5.93;;;4.23;;
7213;SDS011;3648;50.614;13.830;2022-08-18T00:26:48;5.93;;;4.73;;
7213;SDS011;3648;50.614;13.830;2022-08-18T00:29:15;5.47;;;4.10;;
7213;SDS011;3648;50.614;13.830;2022-08-18T00:31:44;4.60;;;4.20;;
7213;SDS011;3648;50.614;13.830;2022-08-18T00:34:11;4.57;;;4.17;;
7213;SDS011;3648;50.614;13.830;2022-08-18T00:36:38;4.60;;;4.20;;
7213;SDS011;3648;50.614;13.830;2022-08-18T00:39:05;6.00;;;5.03;;
7213;SDS011;3648;50.614;13.830;2022-08-18T00:41:32;5.27;;;4.77;;
7213;SDS011;3648;50.614;13.830;2022-08-18T00:43:59;4.90;;;4.40;;
7213;SDS011;3648;50.614;13.830;2022-08-18T00:46:31;6.97;;;4.40;;
7213;SDS011;3648;50.614;13.830;2022-08-18T00:49:03;4.60;;;4.20;;
7213;SDS011;3648;50.614;13.830;2022-08-18T00:51:32;4.10;;;3.63;;
7213;SDS011;3648;50.614;13.830;2022-08-18T00:54:05;4.63;;;4.07;;
7213;SDS011;3648;50.614;13.830;2022-08-18T00:56:36;4.47;;;3.23;;
7213;SDS011;3648;50.614;13.830;2022-08-18T00:59:08;4.87;;;4.03;;
7213;SDS011;3648;50.614;13.830;2022-08-18T01:01:40;5.23;;;4.17;;
7213;SDS011;3648;50.614;13.830;2022-08-18T01:04:13;4.23;;;3.83;;
7213;SDS011;3648;50.614;13.830;2022-08-18T01:06:43;4.03;;;3.63;;
7213;SDS011;3648;50.614;13.830;2022-08-18T01:09:16;3.57;;;3.27;;
7213;SDS011;3648;50.614;13.830;2022-08-18T01:11:43;4.37;;;3.97;;
7213;SDS011;3648;50.614;13.830;2022-08-18T01:14:11;4.33;;;3.77;;
7213;SDS011;3648;50.614;13.830;2022-08-18T01:16:42;4.87;;;4.00;;
7213;SDS011;3648;50.614;13.830;2022-08-18T01:19:29;4.90;;;3.70;;
7213;SDS011;3648;50.614;13.830;2022-08-18T01:22:16;4.03;;;3.67;;
7213;SDS011;3648;50.614;13.830;2022-08-18T01:24:49;4.00;;;3.70;;
7213;SDS011;3648;50.614;13.830;2022-08-18T01:27:35;4.37;;;3.97;;
7213;SDS011;3648;50.614;13.830;2022-08-18T01:30:05;3.90;;;3.50;;
7213;SDS011;3648;50.614;13.830;2022-08-18T01:32:34;4.43;;;3.70;;
7213;SDS011;3648;50.614;13.830;2022-08-18T01:35:03;4.57;;;3.87;;
7213;SDS011;3648;50.614;13.830;2022-08-18T01:37:33;4.30;;;3.90;;
7213;SDS011;3648;50.614;13.830;2022-08-18T01:40:02;5.93;;;3.77;;
7213;SDS011;3648;50.614;13.830;2022-08-18T01:42:31;5.70;;;4.27;;
7213;SDS011;3648;50.614;13.830;2022-08-18T01:44:58;3.97;;;3.57;;
7213;SDS011;3648;50.614;13.830;2022-08-18T01:47:27;4.37;;;3.97;;
7213;SDS011;3648;50.614;13.830;2022-08-18T01:49:55;4.43;;;4.03;;
7213;SDS011;3648;50.614;13.830;2022-08-18T01:52:24;5.33;;;4.30;;
7213;SDS011;3648;50.614;13.830;2022-08-18T01:54:53;3.93;;;3.63;;
7213;SDS011;3648;50.614;13.830;2022-08-18T01:57:23;4.27;;;3.83;;
7213;SDS011;3648;50.614;13.830;2022-08-18T01:59:50;4.37;;;3.93;;
7213;SDS011;3648;50.614;13.830;2022-08-18T02:02:24;4.30;;;3.90;;
7213;SDS011;3648;50.614;13.830;2022-08-18T02:04:53;4.20;;;3.90;;
7213;SDS011;3648;50.614;13.830;2022-08-18T02:07:24;4.30;;;3.90;;
7213;SDS011;3648;50.614;13.830;2022-08-18T02:09:51;5.30;;;4.13;;
7213;SDS011;3648;50.614;13.830;2022-08-18T02:12:18;5.63;;;4.10;;
7213;SDS011;3648;50.614;13.830;2022-08-18T02:14:46;6.00;;;3.90;;
7213;SDS011;3648;50.614;13.830;2022-08-18T02:17:14;4.60;;;3.97;;
7213;SDS011;3648;50.614;13.830;2022-08-18T02:19:42;6.57;;;4.33;;
7213;SDS011;3648;50.614;13.830;2022-08-18T02:22:11;4.43;;;3.83;;
7213;SDS011;3648;50.614;13.830;2022-08-18T02:24:41;4.47;;;4.07;;
7213;SDS011;3648;50.614;13.830;2022-08-18T02:27:08;4.23;;;3.70;;
7213;SDS011;3648;50.614;13.830;2022-08-18T02:29:37;4.00;;;3.70;;
7213;SDS011;3648;50.614;13.830;2022-08-18T02:32:06;6.00;;;3.87;;
7213;SDS011;3648;50.614;13.830;2022-08-18T02:34:34;4.80;;;4.23;;
7213;SDS011;3648;50.614;13.830;2022-08-18T02:37:01;5.53;;;4.67;;
7213;SDS011;3648;50.614;13.830;2022-08-18T02:39:28;5.40;;;4.90;;
7213;SDS011;3648;50.614;13.830;2022-08-18T02:41:55;6.70;;;4.23;;
7213;SDS011;3648;50.614;13.830;2022-08-18T02:44:22;4.20;;;3.90;;
7213;SDS011;3648;50.614;13.830;2022-08-18T02:46:51;5.37;;;4.50;;
7213;SDS011;3648;50.614;13.830;2022-08-18T02:49:20;5.03;;;4.53;;
7213;SDS011;3648;50.614;13.830;2022-08-18T02:51:47;5.73;;;5.07;;
7213;SDS011;3648;50.614;13.830;2022-08-18T02:54:15;5.97;;;5.37;;
7213;SDS011;3648;50.614;13.830;2022-08-18T02:56:44;5.33;;;4.80;;
7213;SDS011;3648;50.614;13.830;2022-08-18T02:59:12;7.00;;;4.87;;
7213;SDS011;3648;50.614;13.830;2022-08-18T03:01:42;5.73;;;4.90;;
7213;SDS011;3648;50.614;13.830;2022-08-18T03:04:12;6.60;;;4.50;;
7213;SDS011;3648;50.614;13.830;2022-08-18T03:06:43;5.30;;;4.80;;
7213;SDS011;3648;50.614;13.830;2022-08-18T03:09:11;6.33;;;4.90;;
7213;SDS011;3648;50.614;13.830;2022-08-18T03:11:39;6.07;;;5.13;;
7213;SDS011;3648;50.614;13.830;2022-08-18T03:14:06;8.70;;;5.40;;
7213;SDS011;3648;50.614;13.830;2022-08-18T03:16:34;5.37;;;4.87;;
7213;SDS011;3648;50.614;13.830;2022-08-18T03:19:03;5.83;;;4.90;;
7213;SDS011;3648;50.614;13.830;2022-08-18T03:21:30;5.37;;;4.83;;
7213;SDS011;3648;50.614;13.830;2022-08-18T03:24:01;5.83;;;5.13;;
7213;SDS011;3648;50.614;13.830;2022-08-18T03:26:30;5.67;;;5.10;;
7213;SDS011;3648;50.614;13.830;2022-08-18T03:28:58;6.53;;;5.23;;
7213;SDS011;3648;50.614;13.830;2022-08-18T03:31:27;7.23;;;4.77;;
7213;SDS011;3648;50.614;13.830;2022-08-18T03:33:56;5.30;;;4.80;;
7213;SDS011;3648;50.614;13.830;2022-08-18T03:36:26;7.17;;;5.47;;
7213;SDS011;3648;50.614;13.830;2022-08-18T03:38:56;6.97;;;5.10;;
7213;SDS011;3648;50.614;13.830;2022-08-18T03:41:25;5.87;;;5.30;;
7213;SDS011;3648;50.614;13.830;2022-08-18T03:43:53;5.53;;;5.07;;
7213;SDS011;3648;50.614;13.830;2022-08-18T03:46:21;5.77;;;5.27;;
7213;SDS011;3648;50.614;13.830;2022-08-18T03:48:49;8.43;;;5.63;;
7213;SDS011;3648;50.614;13.830;2022-08-18T03:51:18;6.73;;;4.93;;
7213;SDS011;3648;50.614;13.830;2022-08-18T03:53:48;5.23;;;4.73;;
7213;SDS011;3648;50.614;13.830;2022-08-18T03:56:20;8.40;;;5.27;;
7213;SDS011;3648;50.614;13.830;2022-08-18T03:58:51;5.10;;;4.70;;
7213;SDS011;3648;50.614;13.830;2022-08-18T04:01:21;5.17;;;4.50;;
7213;SDS011;3648;50.614;13.830;2022-08-18T04:03:50;6.67;;;5.30;;
7213;SDS011;3648;50.614;13.830;2022-08-18T04:06:22;6.43;;;5.00;;
7213;SDS011;3648;50.614;13.830;2022-08-18T04:08:52;5.27;;;4.77;;
7213;SDS011;3648;50.614;13.830;2022-08-18T04:11:20;5.87;;;4.83;;
7213;SDS011;3648;50.614;13.830;2022-08-18T04:13:48;5.37;;;4.37;;
7213;SDS011;3648;50.614;13.830;2022-08-18T04:16:16;5.90;;;4.67;;
7213;SDS011;3648;50.614;13.830;2022-08-18T04:18:43;5.23;;;4.73;;
7213;SDS011;3648;50.614;13.830;2022-08-18T04:21:11;6.67;;;4.67;;
7213;SDS011;3648;50.614;13.830;2022-08-18T04:23:39;4.53;;;4.13;;
7213;SDS011;3648;50.614;13.830;2022-08-18T04:26:07;4.90;;;4.50;;
7213;SDS011;3648;50.614;13.830;2022-08-18T04:28:35;5.53;;;4.53;;
7213;SDS011;3648;50.614;13.830;2022-08-18T04:31:05;4.57;;;4.17;;
7213;SDS011;3648;50.614;13.830;2022-08-18T04:33:35;4.90;;;4.50;;
7213;SDS011;3648;50.614;13.830;2022-08-18T04:36:07;4.20;;;3.80;;
7213;SDS011;3648;50.614;13.830;2022-08-18T04:38:35;5.33;;;4.47;;
7213;SDS011;3648;50.614;13.830;2022-08-18T04:41:03;4.87;;;4.47;;
7213;SDS011;3648;50.614;13.830;2022-08-18T04:43:30;4.73;;;4.27;;
7213;SDS011;3648;50.614;13.830;2022-08-18T04:45:58;4.87;;;4.40;;
7213;SDS011;3648;50.614;13.830;2022-08-18T04:48:27;4.67;;;4.17;;
7213;SDS011;3648;50.614;13.830;2022-08-18T04:51:01;4.90;;;4.33;;
7213;SDS011;3648;50.614;13.830;2022-08-18T04:53:29;4.70;;;4.20;;
7213;SDS011;3648;50.614;13.830;2022-08-18T04:56:15;7.03;;;4.40;;
7213;SDS011;3648;50.614;13.830;2022-08-18T04:58:49;5.00;;;4.30;;
7213;SDS011;3648;50.614;13.830;2022-08-18T05:01:18;4.50;;;4.10;;
7213;SDS011;3648;50.614;13.830;2022-08-18T05:03:46;4.60;;;4.20;;
7213;SDS011;3648;50.614;13.830;2022-08-18T05:06:16;5.10;;;4.60;;
7213;SDS011;3648;50.614;13.830;2022-08-18T05:08:44;5.17;;;4.20;;
7213;SDS011;3648;50.614;13.830;2022-08-18T05:11:12;4.40;;;4.00;;
7213;SDS011;3648;50.614;13.830;2022-08-18T05:13:40;5.10;;;4.60;;
7213;SDS011;3648;50.614;13.830;2022-08-18T05:16:07;4.70;;;4.30;;
7213;SDS011;3648;50.614;13.830;2022-08-18T05:18:35;6.20;;;4.43;;
7213;SDS011;3648;50.614;13.830;2022-08-18T05:21:04;5.20;;;4.67;;
7213;SDS011;3648;50.614;13.830;2022-08-18T05:23:40;5.40;;;4.47;;
7213;SDS011;3648;50.614;13.830;2022-08-18T05:26:07;4.97;;;4.47;;
7213;SDS011;3648;50.614;13.830;2022-08-18T05:28:35;4.80;;;4.30;;
7213;SDS011;3648;50.614;13.830;2022-08-18T05:31:07;4.30;;;3.97;;
7213;SDS011;3648;50.614;13.830;2022-08-18T05:33:36;4.43;;;4.03;;
7213;SDS011;3648;50.614;13.830;2022-08-18T05:36:04;4.63;;;4.17;;
7213;SDS011;3648;50.614;13.830;2022-08-18T05:38:38;7.00;;;6.30;;
7213;SDS011;3648;50.614;13.830;2022-08-18T05:41:18;6.60;;;5.67;;
7213;SDS011;3648;50.614;13.830;2022-08-18T05:43:50;6.07;;;5.43;;
7213;SDS011;3648;50.614;13.830;2022-08-18T05:46:17;10.60;;;5.87;;
7213;SDS011;3648;50.614;13.830;2022-08-18T05:48:47;8.03;;;6.60;;
7213;SDS011;3648;50.614;13.830;2022-08-18T05:51:15;7.20;;;6.50;;
7213;SDS011;3648;50.614;13.830;2022-08-18T05:53:55;8.03;;;6.70;;
7213;SDS011;3648;50.614;13.830;2022-08-18T05:56:40;6.77;;;5.87;;
7213;SDS011;3648;50.614;13.830;2022-08-18T05:59:14;6.53;;;5.93;;
7213;SDS011;3648;50.614;13.830;2022-08-18T06:01:47;7.87;;;6.37;;
7213;SDS011;3648;50.614;13.830;2022-08-18T06:04:21;6.77;;;5.90;;
7213;SDS011;3648;50.614;13.830;2022-08-18T06:06:55;6.63;;;6.03;;
7213;SDS011;3648;50.614;13.830;2022-08-18T06:09:30;8.37;;;5.93;;
7213;SDS011;3648;50.614;13.830;2022-08-18T06:12:03;7.33;;;6.00;;
7213;SDS011;3648;50.614;13.830;2022-08-18T06:14:37;5.73;;;5.03;;
7213;SDS011;3648;50.614;13.830;2022-08-18T06:17:07;7.03;;;5.20;;
7213;SDS011;3648;50.614;13.830;2022-08-18T06:19:43;6.27;;;4.80;;
7213;SDS011;3648;50.614;13.830;2022-08-18T06:22:20;5.30;;;4.80;;
7213;SDS011;3648;50.614;13.830;2022-08-18T06:24:58;5.47;;;4.40;;
7213;SDS011;3648;50.614;13.830;2022-08-18T06:27:34;5.20;;;4.70;;
7213;SDS011;3648;50.614;13.830;2022-08-18T06:30:09;5.83;;;4.70;;
7213;SDS011;3648;50.614;13.830;2022-08-18T06:32:45;5.47;;;4.87;;
7213;SDS011;3648;50.614;13.830;2022-08-18T06:35:30;6.83;;;4.40;;
7213;SDS011;3648;50.614;13.830;2022-08-18T06:38:08;5.87;;;5.00;;
7213;SDS011;3648;50.614;13.830;2022-08-18T06:41:10;6.30;;;4.60;;
7213;SDS011;3648;50.614;13.830;2022-08-18T06:43:42;8.17;;;5.80;;
7213;SDS011;3648;50.614;13.830;2022-08-18T06:46:20;7.03;;;6.33;;
7213;SDS011;3648;50.614;13.830;2022-08-18T06:48:53;6.60;;;5.77;;
7213;SDS011;3648;50.614;13.830;2022-08-18T06:51:26;7.30;;;5.40;;
7213;SDS011;3648;50.614;13.830;2022-08-18T06:53:56;6.73;;;5.77;;
7213;SDS011;3648;50.614;13.830;2022-08-18T06:56:35;5.70;;;5.20;;
7213;SDS011;3648;50.614;13.830;2022-08-18T06:59:13;9.27;;;6.07;;
7213;SDS011;3648;50.614;13.830;2022-08-18T07:01:42;5.93;;;5.33;;
7213;SDS011;3648;50.614;13.830;2022-08-18T07:06:59;6.50;;;5.90;;
7213;SDS011;3648;50.614;13.830;2022-08-18T07:09:42;6.77;;;5.97;;
7213;SDS011;3648;50.614;13.830;2022-08-18T07:12:18;51.17;;;9.97;;
7213;SDS011;3648;50.614;13.830;2022-08-18T07:14:49;21.87;;;8.13;;
7213;SDS011;3648;50.614;13.830;2022-08-18T07:17:19;7.20;;;6.40;;
7213;SDS011;3648;50.614;13.830;2022-08-18T07:19:59;6.80;;;5.77;;
7213;SDS011;3648;50.614;13.830;2022-08-18T07:22:32;7.70;;;6.23;;
7213;SDS011;3648;50.614;13.830;2022-08-18T07:25:18;6.10;;;5.53;;
7213;SDS011;3648;50.614;13.830;2022-08-18T07:27:51;7.63;;;5.40;;
7213;SDS011;3648;50.614;13.830;2022-08-18T07:30:25;6.37;;;5.57;;
7213;SDS011;3648;50.614;13.830;2022-08-18T07:32:56;7.80;;;5.60;;
7213;SDS011;3648;50.614;13.830;2022-08-18T07:35:29;7.73;;;5.43;;
7213;SDS011;3648;50.614;13.830;2022-08-18T07:38:05;6.40;;;5.43;;
7213;SDS011;3648;50.614;13.830;2022-08-18T07:40:41;7.03;;;5.23;;
7213;SDS011;3648;50.614;13.830;2022-08-18T07:43:15;7.93;;;6.10;;
7213;SDS011;3648;50.614;13.830;2022-08-18T07:45:46;7.20;;;5.47;;
7213;SDS011;3648;50.614;13.830;2022-08-18T07:48:14;6.77;;;6.10;;
7213;SDS011;3648;50.614;13.830;2022-08-18T07:50:46;7.17;;;6.10;;
7213;SDS011;3648;50.614;13.830;2022-08-18T07:53:24;7.50;;;5.30;;
7213;SDS011;3648;50.614;13.830;2022-08-18T07:56:01;5.70;;;4.87;;
7213;SDS011;3648;50.614;13.830;2022-08-18T07:58:33;6.17;;;4.93;;
7213;SDS011;3648;50.614;13.830;2022-08-18T08:01:09;6.03;;;5.27;;
7213;SDS011;3648;50.614;13.830;2022-08-18T08:03:44;6.60;;;5.00;;
7213;SDS011;3648;50.614;13.830;2022-08-18T08:06:19;8.37;;;4.83;;
7213;SDS011;3648;50.614;13.830;2022-08-18T08:08:54;6.23;;;5.63;;
7213;SDS011;3648;50.614;13.830;2022-08-18T08:11:34;6.47;;;5.87;;
7213;SDS011;3648;50.614;13.830;2022-08-18T08:14:17;6.17;;;5.57;;
7213;SDS011;3648;50.614;13.830;2022-08-18T08:16:59;6.47;;;5.87;;
7213;SDS011;3648;50.614;13.830;2022-08-18T08:19:43;5.87;;;5.30;;
7213;SDS011;3648;50.614;13.830;2022-08-18T08:22:36;6.83;;;5.70;;
7213;SDS011;3648;50.614;13.830;2022-08-18T08:25:10;6.03;;;5.37;;
7213;SDS011;3648;50.614;13.830;2022-08-18T08:27:48;6.60;;;5.90;;
7213;SDS011;3648;50.614;13.830;2022-08-18T08:30:29;7.83;;;6.03;;
7213;SDS011;3648;50.614;13.830;2022-08-18T08:33:01;5.90;;;5.40;;
7213;SDS011;3648;50.614;13.830;2022-08-18T08:35:37;6.00;;;5.37;;
7213;SDS011;3648;50.614;13.830;2022-08-18T08:38:10;14.53;;;6.77;;
7213;SDS011;3648;50.614;13.830;2022-08-18T08:40:45;8.87;;;5.70;;
7213;SDS011;3648;50.614;13.830;2022-08-18T08:43:20;7.10;;;5.73;;
7213;SDS011;3648;50.614;13.830;2022-08-18T08:45:56;6.73;;;5.97;;
7213;SDS011;3648;50.614;13.830;2022-08-18T08:48:31;8.40;;;5.80;;
7213;SDS011;3648;50.614;13.830;2022-08-18T08:51:10;6.00;;;5.40;;
7213;SDS011;3648;50.614;13.830;2022-08-18T08:53:48;6.17;;;5.60;;
7213;SDS011;3648;50.614;13.830;2022-08-18T08:56:20;6.40;;;5.80;;
7213;SDS011;3648;50.614;13.830;2022-08-18T08:58:53;8.87;;;5.73;;
7213;SDS011;3648;50.614;13.830;2022-08-18T09:01:25;5.73;;;5.23;;
7213;SDS011;3648;50.614;13.830;2022-08-18T09:03:58;7.67;;;6.10;;
7213;SDS011;3648;50.614;13.830;2022-08-18T09:06:31;5.93;;;5.37;;
7213;SDS011;3648;50.614;13.830;2022-08-18T09:09:13;6.90;;;6.17;;
7213;SDS011;3648;50.614;13.830;2022-08-18T09:20:59;7.00;;;5.90;;
7213;SDS011;3648;50.614;13.830;2022-08-18T09:23:41;6.37;;;5.77;;
7213;SDS011;3648;50.614;13.830;2022-08-18T09:26:21;6.27;;;5.50;;
7213;SDS011;3648;50.614;13.830;2022-08-18T09:28:54;6.73;;;6.03;;
7213;SDS011;3648;50.614;13.830;2022-08-18T09:31:26;6.77;;;6.17;;
7213;SDS011;3648;50.614;13.830;2022-08-18T09:39:49;7.10;;;6.40;;
7213;SDS011;3648;50.614;13.830;2022-08-18T09:42:42;6.57;;;5.97;;
7213;SDS011;3648;50.614;13.830;2022-08-18T09:48:23;6.33;;;5.73;;
7213;SDS011;3648;50.614;13.830;2022-08-18T09:51:14;6.50;;;5.90;;
7213;SDS011;3648;50.614;13.830;2022-08-18T09:59:58;6.50;;;5.90;;
7213;SDS011;3648;50.614;13.830;2022-08-18T10:05:38;6.80;;;6.20;;
7213;SDS011;3648;50.614;13.830;2022-08-18T10:08:25;6.27;;;5.67;;
7213;SDS011;3648;50.614;13.830;2022-08-18T10:11:06;6.00;;;5.40;;
7213;SDS011;3648;50.614;13.830;2022-08-18T10:13:47;6.20;;;5.60;;
7213;SDS011;3648;50.614;13.830;2022-08-18T10:16:29;6.83;;;6.13;;
7213;SDS011;3648;50.614;13.830;2022-08-18T10:19:04;6.23;;;5.63;;
7213;SDS011;3648;50.614;13.830;2022-08-18T10:22:01;7.47;;;6.53;;
7213;SDS011;3648;50.614;13.830;2022-08-18T10:24:33;6.57;;;5.53;;
7213;SDS011;3648;50.614;13.830;2022-08-18T10:27:04;6.63;;;5.73;;
7213;SDS011;3648;50.614;13.830;2022-08-18T10:29:46;6.80;;;6.17;;
7213;SDS011;3648;50.614;13.830;2022-08-18T10:32:16;5.87;;;5.27;;
7213;SDS011;3648;50.614;13.830;2022-08-18T10:35:00;6.23;;;5.73;;
7213;SDS011;3648;50.614;13.830;2022-08-18T10:37:29;7.97;;;6.10;;
7213;SDS011;3648;50.614;13.830;2022-08-18T10:40:12;6.77;;;5.33;;
7213;SDS011;3648;50.614;13.830;2022-08-18T10:42:47;6.07;;;5.43;;
7213;SDS011;3648;50.614;13.830;2022-08-18T10:45:19;6.80;;;6.20;;
7213;SDS011;3648;50.614;13.830;2022-08-18T10:47:57;8.93;;;5.97;;
7213;SDS011;3648;50.614;13.830;2022-08-18T10:50:28;7.37;;;6.33;;
7213;SDS011;3648;50.614;13.830;2022-08-18T10:53:02;6.63;;;5.97;;
7213;SDS011;3648;50.614;13.830;2022-08-18T10:55:46;7.27;;;5.77;;
7213;SDS011;3648;50.614;13.830;2022-08-18T10:58:26;6.40;;;5.60;;
7213;SDS011;3648;50.614;13.830;2022-08-18T11:01:11;6.20;;;5.60;;
7213;SDS011;3648;50.614;13.830;2022-08-18T11:03:52;6.10;;;5.60;;
7213;SDS011;3648;50.614;13.830;2022-08-18T11:06:36;7.23;;;6.27;;
7213;SDS011;3648;50.614;13.830;2022-08-18T11:09:06;5.90;;;5.30;;
7213;SDS011;3648;50.614;13.830;2022-08-18T11:11:37;6.10;;;5.50;;
7213;SDS011;3648;50.614;13.830;2022-08-18T11:14:14;5.70;;;5.30;;
7213;SDS011;3648;50.614;13.830;2022-08-18T11:17:01;5.53;;;5.03;;
7213;SDS011;3648;50.614;13.830;2022-08-18T11:19:37;5.70;;;5.07;;
7213;SDS011;3648;50.614;13.830;2022-08-18T11:22:06;6.57;;;5.97;;
7213;SDS011;3648;50.614;13.830;2022-08-18T11:24:50;5.93;;;5.33;;
7213;SDS011;3648;50.614;13.830;2022-08-18T11:27:20;6.57;;;6.07;;
7213;SDS011;3648;50.614;13.830;2022-08-18T11:29:49;6.40;;;5.80;;
7213;SDS011;3648;50.614;13.830;2022-08-18T11:32:18;6.03;;;5.33;;
7213;SDS011;3648;50.614;13.830;2022-08-18T11:34:49;6.17;;;5.67;;
7213;SDS011;3648;50.614;13.830;2022-08-18T11:37:19;5.50;;;5.00;;
7213;SDS011;3648;50.614;13.830;2022-08-18T11:39:51;5.73;;;5.23;;
7213;SDS011;3648;50.614;13.830;2022-08-18T11:42:27;6.30;;;5.70;;
7213;SDS011;3648;50.614;13.830;2022-08-18T11:45:06;6.37;;;5.77;;
7213;SDS011;3648;50.614;13.830;2022-08-18T11:47:46;5.93;;;5.43;;
7213;SDS011;3648;50.614;13.830;2022-08-18T11:50:26;5.80;;;5.13;;
7213;SDS011;3648;50.614;13.830;2022-08-18T11:52:55;5.67;;;5.03;;
7213;SDS011;3648;50.614;13.830;2022-08-18T11:55:36;6.33;;;5.40;;
7213;SDS011;3648;50.614;13.830;2022-08-18T11:58:05;6.37;;;5.50;;
7213;SDS011;3648;50.614;13.830;2022-08-18T12:00:36;5.87;;;5.27;;
7213;SDS011;3648;50.614;13.830;2022-08-18T12:03:25;6.00;;;5.50;;
7213;SDS011;3648;50.614;13.830;2022-08-18T12:06:08;5.60;;;5.10;;
7213;SDS011;3648;50.614;13.830;2022-08-18T12:08:47;5.50;;;5.00;;
7213;SDS011;3648;50.614;13.830;2022-08-18T12:11:18;8.00;;;4.90;;
7213;SDS011;3648;50.614;13.830;2022-08-18T12:13:58;5.20;;;4.80;;
7213;SDS011;3648;50.614;13.830;2022-08-18T12:16:31;6.50;;;5.43;;
7213;SDS011;3648;50.614;13.830;2022-08-18T12:19:04;6.17;;;5.10;;
7213;SDS011;3648;50.614;13.830;2022-08-18T12:21:32;5.90;;;4.80;;
7213;SDS011;3648;50.614;13.830;2022-08-18T12:24:02;5.33;;;4.83;;
7213;SDS011;3648;50.614;13.830;2022-08-18T12:26:29;5.73;;;5.00;;
7213;SDS011;3648;50.614;13.830;2022-08-18T12:28:59;5.33;;;4.87;;
7213;SDS011;3648;50.614;13.830;2022-08-18T12:31:26;5.03;;;4.60;;
7213;SDS011;3648;50.614;13.830;2022-08-18T12:33:53;5.27;;;4.80;;
7213;SDS011;3648;50.614;13.830;2022-08-18T12:36:20;5.30;;;4.90;;
7213;SDS011;3648;50.614;13.830;2022-08-18T12:38:47;4.80;;;4.40;;
7213;SDS011;3648;50.614;13.830;2022-08-18T12:41:14;5.93;;;5.17;;
7213;SDS011;3648;50.614;13.830;2022-08-18T12:43:41;5.67;;;5.17;;
7213;SDS011;3648;50.614;13.830;2022-08-18T12:46:10;8.00;;;5.20;;
7213;SDS011;3648;50.614;13.830;2022-08-18T12:48:37;5.13;;;4.23;;
7213;SDS011;3648;50.614;13.830;2022-08-18T12:51:05;4.87;;;4.47;;
7213;SDS011;3648;50.614;13.830;2022-08-18T12:53:32;5.07;;;4.57;;
7213;SDS011;3648;50.614;13.830;2022-08-18T12:55:59;6.10;;;4.53;;
7213;SDS011;3648;50.614;13.830;2022-08-18T12:58:27;6.27;;;4.83;;
7213;SDS011;3648;50.614;13.830;2022-08-18T13:00:54;5.60;;;5.10;;
7213;SDS011;3648;50.614;13.830;2022-08-18T13:03:25;4.93;;;4.53;;
7213;SDS011;3648;50.614;13.830;2022-08-18T13:05:53;7.67;;;5.50;;
7213;SDS011;3648;50.614;13.830;2022-08-18T13:08:21;5.73;;;5.23;;
7213;SDS011;3648;50.614;13.830;2022-08-18T13:10:48;5.83;;;5.10;;
7213;SDS011;3648;50.614;13.830;2022-08-18T13:13:16;5.47;;;4.97;;
7213;SDS011;3648;50.614;13.830;2022-08-18T13:15:44;5.60;;;5.10;;
7213;SDS011;3648;50.614;13.830;2022-08-18T13:18:13;7.73;;;5.60;;
7213;SDS011;3648;50.614;13.830;2022-08-18T13:20:44;5.33;;;4.93;;
7213;SDS011;3648;50.614;13.830;2022-08-18T13:23:12;7.60;;;4.77;;
7213;SDS011;3648;50.614;13.830;2022-08-18T13:25:39;4.80;;;4.40;;
7213;SDS011;3648;50.614;13.830;2022-08-18T13:28:06;6.47;;;5.13;;
7213;SDS011;3648;50.614;13.830;2022-08-18T13:30:33;5.60;;;4.90;;
7213;SDS011;3648;50.614;13.830;2022-08-18T13:33:00;5.50;;;5.00;;
7213;SDS011;3648;50.614;13.830;2022-08-18T13:35:28;5.90;;;4.37;;
7213;SDS011;3648;50.614;13.830;2022-08-18T13:37:57;5.67;;;5.17;;
7213;SDS011;3648;50.614;13.830;2022-08-18T13:40:26;7.57;;;4.70;;
7213;SDS011;3648;50.614;13.830;2022-08-18T13:42:55;5.13;;;4.73;;
7213;SDS011;3648;50.614;13.830;2022-08-18T13:45:23;4.80;;;4.27;;
7213;SDS011;3648;50.614;13.830;2022-08-18T13:47:50;5.23;;;4.83;;
7213;SDS011;3648;50.614;13.830;2022-08-18T13:50:17;4.87;;;4.43;;
7213;SDS011;3648;50.614;13.830;2022-08-18T13:52:45;5.20;;;4.37;;
7213;SDS011;3648;50.614;13.830;2022-08-18T13:55:14;5.70;;;4.57;;
7213;SDS011;3648;50.614;13.830;2022-08-18T13:57:43;4.93;;;4.53;;
7213;SDS011;3648;50.614;13.830;2022-08-18T14:00:13;5.90;;;4.50;;
7213;SDS011;3648;50.614;13.830;2022-08-18T14:02:44;5.50;;;4.23;;
7213;SDS011;3648;50.614;13.830;2022-08-18T14:05:14;7.30;;;4.80;;
7213;SDS011;3648;50.614;13.830;2022-08-18T14:07:41;6.10;;;4.70;;
7213;SDS011;3648;50.614;13.830;2022-08-18T14:10:09;5.07;;;4.57;;
7213;SDS011;3648;50.614;13.830;2022-08-18T14:12:38;5.13;;;4.73;;
7213;SDS011;3648;50.614;13.830;2022-08-18T14:15:07;5.73;;;4.47;;
7213;SDS011;3648;50.614;13.830;2022-08-18T14:17:36;5.37;;;4.63;;
7213;SDS011;3648;50.614;13.830;2022-08-18T14:20:05;6.33;;;5.40;;
7213;SDS011;3648;50.614;13.830;2022-08-18T14:22:52;6.30;;;5.00;;
7213;SDS011;3648;50.614;13.830;2022-08-18T14:25:38;4.90;;;4.50;;
7213;SDS011;3648;50.614;13.830;2022-08-18T14:28:25;5.37;;;4.70;;
7213;SDS011;3648;50.614;13.830;2022-08-18T14:30:52;7.57;;;5.20;;
7213;SDS011;3648;50.614;13.830;2022-08-18T14:33:21;5.17;;;4.40;;
7213;SDS011;3648;50.614;13.830;2022-08-18T14:35:50;5.60;;;5.00;;
7213;SDS011;3648;50.614;13.830;2022-08-18T14:38:17;5.50;;;5.00;;
7213;SDS011;3648;50.614;13.830;2022-08-18T14:40:45;8.23;;;4.90;;
7213;SDS011;3648;50.614;13.830;2022-08-18T14:43:14;6.73;;;5.20;;
7213;SDS011;3648;50.614;13.830;2022-08-18T14:45:47;6.87;;;4.93;;
7213;SDS011;3648;50.614;13.830;2022-08-18T14:48:16;6.80;;;4.80;;
7213;SDS011;3648;50.614;13.830;2022-08-18T14:50:46;7.90;;;5.27;;
7213;SDS011;3648;50.614;13.830;2022-08-18T14:53:15;5.00;;;4.50;;
7213;SDS011;3648;50.614;13.830;2022-08-18T14:55:44;9.53;;;5.23;;
7213;SDS011;3648;50.614;13.830;2022-08-18T14:58:11;6.67;;;4.57;;
7213;SDS011;3648;50.614;13.830;2022-08-18T15:00:38;4.97;;;4.53;;
7213;SDS011;3648;50.614;13.830;2022-08-18T15:03:07;10.40;;;5.50;;
7213;SDS011;3648;50.614;13.830;2022-08-18T15:05:34;4.93;;;4.53;;
7213;SDS011;3648;50.614;13.830;2022-08-18T15:08:02;5.23;;;4.83;;
7213;SDS011;3648;50.614;13.830;2022-08-18T15:10:30;8.73;;;5.40;;
7213;SDS011;3648;50.614;13.830;2022-08-18T15:12:57;6.40;;;5.10;;
7213;SDS011;3648;50.614;13.830;2022-08-18T15:15:25;5.03;;;4.53;;
7213;SDS011;3648;50.614;13.830;2022-08-18T15:17:53;5.27;;;4.73;;
7213;SDS011;3648;50.614;13.830;2022-08-18T15:20:23;7.00;;;5.27;;
7213;SDS011;3648;50.614;13.830;2022-08-18T15:22:52;5.40;;;4.50;;
7213;SDS011;3648;50.614;13.830;2022-08-18T15:25:36;5.47;;;4.77;;
7213;SDS011;3648;50.614;13.830;2022-08-18T15:28:10;5.90;;;4.33;;
7213;SDS011;3648;50.614;13.830;2022-08-18T15:30:38;6.17;;;4.73;;
7213;SDS011;3648;50.614;13.830;2022-08-18T15:33:06;5.67;;;5.03;;
7213;SDS011;3648;50.614;13.830;2022-08-18T15:35:36;8.73;;;5.00;;
7213;SDS011;3648;50.614;13.830;2022-08-18T15:38:05;5.40;;;5.00;;
7213;SDS011;3648;50.614;13.830;2022-08-18T15:40:33;7.87;;;4.57;;
7213;SDS011;3648;50.614;13.830;2022-08-18T15:43:00;6.10;;;4.97;;
7213;SDS011;3648;50.614;13.830;2022-08-18T15:45:33;6.90;;;5.17;;
7213;SDS011;3648;50.614;13.830;2022-08-18T15:48:03;5.33;;;4.80;;
7213;SDS011;3648;50.614;13.830;2022-08-18T15:50:30;5.90;;;5.07;;
7213;SDS011;3648;50.614;13.830;2022-08-18T15:52:59;5.70;;;4.90;;
7213;SDS011;3648;50.614;13.830;2022-08-18T15:55:30;7.80;;;5.67;;
7213;SDS011;3648;50.614;13.830;2022-08-18T15:57:59;16.07;;;5.13;;
7213;SDS011;3648;50.614;13.830;2022-08-18T16:00:28;5.63;;;4.67;;